Latest Coastal Weather Observations for South Johnstone

IDQ60701

Issued at 1:05 pm EST Wednesday 30 July 2014 (issued every 10 minutes, with the page automatically refreshed every 10 minutes)

About coastal observations | Map of coastal stations | Coastal observations for QLD | Marine services | Other Formats
Station Details ID: 032037 Name: SOUTH JOHNSTONE EXP STN Lat: -17.61 Lon: 146.00 Height: 18.3 m
Data from the previous 72 hours. | See also: Recent months at South Johnstone
Date/Time
EST
Temp

°C
Wind Pressure Rain
since 9am
mm
Weather Cloud Vis
km
Sea
Height
m
Swell
Dir
 
Speed
knots
Gust
knots
hPa Trend Height
m
Period
s
Dir
30/01:00pm 25.2 SE 8 13 1018.6 - 0.0 - - - - - - -
30/12:30pm 25.5 ESE 8 12 1019.0 - 0.0 - - - - - - -
30/12:00pm 25.1 SSE 5 9 1019.5 - 0.0 - - - - - - -
30/11:30am 23.7 S 7 11 1020.2 - 0.0 - - - - - - -
30/11:00am 23.7 S 5 8 1020.5 - 0.0 - - - - - - -
30/10:30am 23.7 SSW 5 7 1020.7 - 0.0 - - - - - - -
30/10:00am 22.5 S 7 10 1020.9 - 0.0 - - - - - - -
30/09:30am 22.5 S 4 9 1020.9 - 0.0 - - - - - - -
30/09:00am 21.4 SW 1 6 1020.7 - 0.0 - - - - - - -
30/08:30am 20.0 CALM 0 0 1020.7 - 0.0 - - - - - - -
30/08:00am 19.5 CALM 0 0 1020.5 - 0.0 - - - - - - -
30/07:30am 17.9 SW 1 5 1020.3 - 0.0 - - - - - - -
30/07:00am 17.5 W 2 5 1020.0 - 0.0 - - - - - - -
30/06:30am 17.4 CALM 0 3 1019.8 - 0.0 - - - - - - -
30/06:00am 17.4 WSW 3 4 1019.5 - 0.0 - - - - - - -
30/05:30am 16.9 W 2 4 1019.3 - 0.0 - - - - - - -
30/05:00am 16.9 CALM 0 0 1019.2 - 0.0 - - - - - - -
30/04:30am 16.6 CALM 0 0 1019.0 - 0.0 - - - - - - -
30/04:00am 16.7 WNW 1 3 1019.0 - 0.0 - - - - - - -
30/03:30am 16.6 W 3 5 1018.8 - 0.0 - - - - - - -
30/03:00am 16.5 WSW 4 7 1019.0 - 0.0 - - - - - - -
30/02:30am 16.3 CALM 0 5 1019.2 - 0.0 - - - - - - -
30/02:00am 16.6 CALM 0 0 1019.5 - 0.0 - - - - - - -
30/01:30am 16.6 CALM 0 0 1019.8 - 0.0 - - - - - - -
30/01:00am 16.6 WSW 4 7 1020.0 - 0.0 - - - - - - -
30/12:30am 16.5 W 3 6 1020.2 - 0.0 - - - - - - -
30/12:00am 16.5 WSW 6 7 1020.2 - 0.0 - - - - - - -
 
Date/Time
EST
Temp

°C
Wind Pressure Rain
since 9am
mm
Weather Cloud Vis
km
Sea
Height
m
Swell
Dir
 
Speed
knots
Gust
knots
hPa Trend Height
m
Period
s
Dir
29/11:30pm 16.6 W 3 5 1020.5 - 0.0 - - - - - - -
29/11:00pm 16.8 WSW 5 7 1020.7 - 0.0 - - - - - - -
29/10:30pm 16.8 W 2 5 1020.8 - 0.0 - - - - - - -
29/10:00pm 17.0 W 1 4 1021.0 - 0.0 - - - - - - -
29/09:30pm 17.1 W 1 3 1020.9 - 0.0 - - - - - - -
29/09:00pm 17.4 WNW 2 5 1020.6 - 0.0 - - - - - - -
29/08:30pm 17.6 NNE 2 5 1020.5 - 0.0 - - - - - - -
29/08:00pm 18.1 WSW 5 6 1020.2 - 0.0 - - - - - - -
29/07:30pm 18.7 CALM 0 0 1020.1 - 0.0 - - - - - - -
29/07:00pm 19.0 CALM 0 0 1019.9 - 0.0 - - - - - - -
29/06:30pm 20.7 SSW 4 5 1019.6 - 0.0 - - - - - - -
29/06:00pm 21.1 S 2 6 1019.3 - 0.0 - - - - - - -
29/05:30pm 21.7 SSE 4 8 1019.1 - 0.0 - - - - - - -
29/05:00pm 22.5 SE 6 9 1018.8 - 0.0 - - - - - - -
29/04:30pm 23.1 SE 6 9 1018.7 - 0.0 - - - - - - -
29/04:00pm 23.7 ESE 5 9 1018.5 - 0.0 - - - - - - -
29/03:30pm 24.0 SE 7 11 1018.5 - 0.0 - - - - - - -
29/03:00pm 24.1 ESE 6 11 1018.5 - 0.0 - - - - - - -
29/02:30pm 24.2 ESE 7 11 1018.8 - 0.0 - - - - - - -
29/02:00pm 24.2 SE 7 11 1019.2 - 0.0 - - - - - - -
29/01:30pm 24.3 SE 9 15 1019.7 - 0.0 - - - - - - -
29/01:00pm 24.2 SE 8 12 1020.1 - 0.0 - - - - - - -
29/12:30pm 23.7 SE 7 12 1020.5 - 0.0 - - - - - - -
29/12:00pm 23.9 ESE 8 12 1020.8 - 0.0 - - - - - - -
29/11:30am 23.3 SE 8 12 1021.1 - 0.0 - - - - - - -
29/11:00am 22.7 S 6 9 1021.5 - 0.0 - - - - - - -
29/10:30am 22.7 SSE 6 8 1021.7 - 0.0 - - - - - - -
29/10:00am 22.2 S 5 8 1021.9 - 0.0 - - - - - - -
29/09:30am 21.8 SSW 5 8 1022.0 - 0.0 - - - - - - -
29/09:00am 20.6 SW 2 5 1021.7 - 11.0 - - - - - - -
29/08:30am 19.0 W 1 4 1021.6 - 11.0 - - - - - - -
29/08:00am 18.4 WSW 2 5 1021.3 - 11.0 - - - - - - -
29/07:30am 17.9 NW 1 4 1021.0 - 11.0 - - - - - - -
29/07:00am 17.7 CALM 0 5 1020.6 - 11.0 - - - - - - -
29/06:30am 17.7 W 2 6 1020.2 - 11.0 - - - - - - -
29/06:00am 17.9 CALM 0 0 1019.8 - 11.0 - - - - - - -
29/05:30am 18.0 CALM 0 0 1019.7 - 11.0 - - - - - - -
29/05:00am 18.4 CALM 0 0 1019.5 - 11.0 - - - - - - -
29/04:30am 18.8 CALM 0 0 1019.5 - 11.0 - - - - - - -
29/04:00am 18.8 CALM 0 0 1019.4 - 11.0 - - - - - - -
29/03:30am 18.8 WSW 5 7 1019.5 - 11.0 - - - - - - -
29/03:00am 18.8 WSW 4 6 1019.5 - 11.0 - - - - - - -
29/02:30am 19.0 WSW 4 6 1019.6 - 10.8 - - - - - - -
29/02:00am 19.1 WSW 4 5 1019.8 - 10.8 - - - - - - -
29/01:30am 19.2 CALM 0 0 1020.1 - 10.8 - - - - - - -
29/01:00am 19.2 N 2 4 1020.3 - 10.2 - - - - - - -
29/12:30am 19.1 W 3 7 1020.3 - 10.0 - - - - - - -
29/12:00am 19.2 W 2 4 1020.1 - 10.0 - - - - - - -
 
Date/Time
EST
Temp

°C
Wind Pressure Rain
since 9am
mm
Weather Cloud Vis
km
Sea
Height
m
Swell
Dir
 
Speed
knots
Gust
knots
hPa Trend Height
m
Period
s
Dir
28/11:30pm 19.5 WSW 2 5 1020.4 - 10.0 - - - - - - -
28/11:00pm 19.5 NNW 1 4 1020.5 - 10.0 - - - - - - -
28/10:30pm 19.6 CALM 0 0 1020.6 - 10.0 - - - - - - -
28/10:00pm 19.8 WSW 4 7 1020.7 - 10.0 - - - - - - -
28/09:30pm 19.7 CALM 0 0 1020.7 - 10.0 - - - - - - -
28/09:00pm 19.8 CALM 0 0 1020.6 - 10.0 - - - - - - -
28/08:30pm 19.8 CALM 0 0 1020.5 - 10.0 - - - - - - -
28/08:00pm 19.8 NW 2 4 1020.3 - 10.0 - - - - - - -
28/07:30pm 19.8 NNW 1 4 1020.0 - 9.8 - - - - - - -
28/07:00pm 20.0 CALM 0 0 1019.7 - 9.8 - - - - - - -
28/06:30pm 20.8 S 5 7 1019.4 - 9.8 - - - - - - -
28/06:00pm 20.5 S 6 9 1019.2 - 9.8 - - - - - - -
28/05:30pm 20.6 S 5 12 1019.1 - 9.8 - - - - - - -
28/05:00pm 20.4 S 1 4 1019.0 - 9.8 - - - - - - -
28/04:30pm 20.3 S 5 7 1018.9 - 9.8 - - - - - - -
28/04:00pm 20.5 SSE 4 7 1018.8 - 9.8 - - - - - - -
28/03:30pm 20.6 SSE 5 7 1018.9 - 9.6 - - - - - - -
28/03:00pm 20.4 S 5 8 1018.8 - 9.6 - - - - - - -
28/02:30pm 20.4 E 2 5 1019.2 - 8.4 - - - - - - -
28/02:00pm 20.3 ESE 5 7 1019.6 - 8.2 - - - - - - -
28/01:30pm 20.3 E 4 6 1019.9 - 5.2 - - - - - - -
28/01:00pm 20.0 E 10 16 1020.3 - 3.2 - - - - - - -
28/12:30pm 21.9 E 10 14 1020.4 - 1.2 - - - - - - -
28/12:00pm 22.5 SSE 6 12 1020.3 - 1.2 - - - - - - -
28/11:30am 22.2 SSE 7 11 1020.8 - 0.2 - - - - - - -
28/11:00am 22.9 SSE 10 14 1021.3 - 0.2 - - - - - - -
28/10:30am 23.1 SSE 8 13 1021.5 - 0.2 - - - - - - -
28/10:00am 22.3 S 7 13 1021.7 - 0.2 - - - - - - -
28/09:30am 22.7 S 8 12 1021.7 - 0.0 - - - - - - -
28/09:00am 22.3 S 8 12 1021.5 - 18.6 - - - - - - -
28/08:30am 21.9 S 6 9 1021.3 - 18.6 - - - - - - -
28/08:00am 21.5 SSW 6 10 1021.0 - 18.6 - - - - - - -
28/07:30am 20.1 SW 2 7 1020.7 - 18.6 - - - - - - -
28/07:00am 20.9 SSW 7 11 1020.1 - 18.6 - - - - - - -
28/06:30am 20.9 SSW 6 10 1019.7 - 18.6 - - - - - - -
28/06:00am 20.9 SSW 7 11 1019.5 - 18.6 - - - - - - -
28/05:30am 21.0 SSW 7 10 1019.6 - 18.6 - - - - - - -
28/05:00am 21.2 SSW 7 11 1019.4 - 18.6 - - - - - - -
28/04:30am 20.9 SSW 6 9 1019.3 - 18.6 - - - - - - -
28/04:00am 21.0 S 6 10 1019.3 - 18.6 - - - - - - -
28/03:30am 21.0 S 7 10 1019.4 - 18.6 - - - - - - -
28/03:00am 21.0 SSW 5 8 1019.4 - 18.6 - - - - - - -
28/02:30am 20.9 S 6 9 1019.7 - 18.6 - - - - - - -
28/02:00am 20.8 S 4 7 1020.0 - 18.6 - - - - - - -
28/01:30am 20.9 S 4 7 1020.3 - 18.6 - - - - - - -
28/01:00am 21.0 S 5 8 1020.4 - 18.4 - - - - - - -
28/12:30am 21.1 S 5 8 1020.7 - 18.4 - - - - - - -
28/12:00am 21.3 SSW 2 5 1021.0 - 18.4 - - - - - - -
 
Date/Time
EST
Temp

°C
Wind Pressure Rain
since 9am
mm
Weather Cloud Vis
km
Sea
Height
m
Swell
Dir
 
Speed
knots
Gust
knots
hPa Trend Height
m
Period
s
Dir
27/11:30pm 21.0 S 4 6 1021.5 - 18.4 - - - - - - -
27/11:00pm 21.2 S 4 6 1021.6 - 18.4 - - - - - - -
27/10:30pm 21.3 SSW 5 7 1021.7 - 18.4 - - - - - - -
27/10:00pm 21.1 SSW 4 7 1021.8 - 18.4 - - - - - - -
27/09:30pm 21.0 SSW 8 11 1021.8 - 18.4 - - - - - - -
27/09:00pm 20.2 E 2 5 1021.6 - 18.4 - - - - - - -
27/08:30pm 20.2 CALM 0 3 1021.7 - 17.8 - - - - - - -
27/08:00pm 20.0 S 5 7 1021.4 - 15.6 - - - - - - -
27/07:30pm 20.0 SSE 5 8 1021.2 - 14.0 - - - - - - -
27/07:00pm 20.0 E 4 8 1020.8 - 10.0 - - - - - - -
27/06:30pm 20.2 SE 4 5 1020.3 - 5.4 - - - - - - -
27/06:00pm 20.3 S 6 9 1019.8 - 5.4 - - - - - - -
27/05:30pm 20.0 S 6 11 1019.9 - 4.6 - - - - - - -
27/05:00pm 20.4 SSE 7 10 1019.8 - 3.8 - - - - - - -
27/04:30pm 21.0 S 6 9 1019.4 - 3.4 - - - - - - -
27/04:00pm 20.6 S 7 10 1019.2 - 3.4 - - - - - - -
27/03:30pm 20.8 SSE 8 12 1019.3 - 3.4 - - - - - - -
27/03:00pm 21.0 SSE 6 11 1019.2 - 1.8 - - - - - - -
27/02:30pm 21.9 S 11 15 1019.4 - 1.0 - - - - - - -
27/02:00pm 23.4 S 9 13 1019.4 - 1.0 - - - - - - -
27/01:30pm 22.1 SSE 11 16 1019.9 - 1.0 - - - - - - -

Other Formats:

Comma delimited format used in spreadsheet applications
http://www.bom.gov.au/fwo/IDQ60701/IDQ60701.95292.axf

JavaScript Object Notation format (JSON) in row-major order
http://www.bom.gov.au/fwo/IDQ60701/IDQ60701.95292.json